sensor_id;sensor_type;location;lat;lon;timestamp;P1;durP1;ratioP1;P2;durP2;ratioP2
32445;SDS011;18899;50.748;7.102;2024-02-14T00:01:51;3.63;;;1.30;;
32445;SDS011;18899;50.748;7.102;2024-02-14T00:04:17;3.22;;;1.08;;
32445;SDS011;18899;50.748;7.102;2024-02-14T00:06:43;4.70;;;1.23;;
32445;SDS011;18899;50.748;7.102;2024-02-14T00:09:10;4.13;;;1.42;;
32445;SDS011;18899;50.748;7.102;2024-02-14T00:11:36;3.05;;;1.27;;
32445;SDS011;18899;50.748;7.102;2024-02-14T00:14:02;2.53;;;1.25;;
32445;SDS011;18899;50.748;7.102;2024-02-14T00:16:27;2.67;;;1.10;;
32445;SDS011;18899;50.748;7.102;2024-02-14T00:18:55;3.38;;;1.02;;
32445;SDS011;18899;50.748;7.102;2024-02-14T00:21:21;2.60;;;1.08;;
32445;SDS011;18899;50.748;7.102;2024-02-14T00:23:47;4.15;;;1.10;;
32445;SDS011;18899;50.748;7.102;2024-02-14T00:26:13;4.13;;;1.10;;
32445;SDS011;18899;50.748;7.102;2024-02-14T00:28:38;4.00;;;1.25;;
32445;SDS011;18899;50.748;7.102;2024-02-14T00:31:04;3.67;;;1.40;;
32445;SDS011;18899;50.748;7.102;2024-02-14T00:33:31;4.50;;;1.35;;
32445;SDS011;18899;50.748;7.102;2024-02-14T00:35:57;5.97;;;1.00;;
32445;SDS011;18899;50.748;7.102;2024-02-14T00:38:23;3.72;;;1.20;;
32445;SDS011;18899;50.748;7.102;2024-02-14T00:40:48;4.43;;;1.08;;
32445;SDS011;18899;50.748;7.102;2024-02-14T00:43:14;1.90;;;0.90;;
32445;SDS011;18899;50.748;7.102;2024-02-14T00:45:39;1.88;;;0.90;;
32445;SDS011;18899;50.748;7.102;2024-02-14T00:48:05;6.50;;;1.00;;
32445;SDS011;18899;50.748;7.102;2024-02-14T00:50:32;4.65;;;1.50;;
32445;SDS011;18899;50.748;7.102;2024-02-14T00:52:58;2.53;;;1.10;;
32445;SDS011;18899;50.748;7.102;2024-02-14T00:55:24;3.65;;;1.00;;
32445;SDS011;18899;50.748;7.102;2024-02-14T00:57:49;6.05;;;1.27;;
32445;SDS011;18899;50.748;7.102;2024-02-14T01:00:15;2.40;;;0.82;;
32445;SDS011;18899;50.748;7.102;2024-02-14T01:02:42;3.50;;;1.05;;
32445;SDS011;18899;50.748;7.102;2024-02-14T01:05:08;3.25;;;1.30;;
32445;SDS011;18899;50.748;7.102;2024-02-14T01:07:34;3.22;;;0.90;;
32445;SDS011;18899;50.748;7.102;2024-02-14T01:10:00;6.22;;;1.10;;
32445;SDS011;18899;50.748;7.102;2024-02-14T01:12:25;2.65;;;0.90;;
32445;SDS011;18899;50.748;7.102;2024-02-14T01:14:51;2.55;;;1.05;;
32445;SDS011;18899;50.748;7.102;2024-02-14T01:17:16;6.60;;;1.23;;
32445;SDS011;18899;50.748;7.102;2024-02-14T01:19:42;2.28;;;1.00;;
32445;SDS011;18899;50.748;7.102;2024-02-14T01:22:08;2.25;;;1.00;;
32445;SDS011;18899;50.748;7.102;2024-02-14T01:24:34;5.47;;;1.10;;
32445;SDS011;18899;50.748;7.102;2024-02-14T01:27:00;2.15;;;0.90;;
32445;SDS011;18899;50.748;7.102;2024-02-14T01:29:25;4.78;;;0.90;;
32445;SDS011;18899;50.748;7.102;2024-02-14T01:31:51;1.42;;;0.80;;
32445;SDS011;18899;50.748;7.102;2024-02-14T01:34:17;5.20;;;1.25;;
32445;SDS011;18899;50.748;7.102;2024-02-14T01:36:43;2.75;;;0.90;;
32445;SDS011;18899;50.748;7.102;2024-02-14T01:39:08;3.10;;;0.98;;
32445;SDS011;18899;50.748;7.102;2024-02-14T01:41:43;3.10;;;1.20;;
32445;SDS011;18899;50.748;7.102;2024-02-14T01:44:11;2.80;;;1.00;;
32445;SDS011;18899;50.748;7.102;2024-02-14T01:46:36;5.47;;;1.13;;
32445;SDS011;18899;50.748;7.102;2024-02-14T01:49:03;2.05;;;0.90;;
32445;SDS011;18899;50.748;7.102;2024-02-14T01:51:29;4.18;;;0.88;;
32445;SDS011;18899;50.748;7.102;2024-02-14T01:53:56;9.77;;;0.88;;
32445;SDS011;18899;50.748;7.102;2024-02-14T01:56:23;3.95;;;0.90;;
32445;SDS011;18899;50.748;7.102;2024-02-14T01:58:50;6.32;;;0.98;;
32445;SDS011;18899;50.748;7.102;2024-02-14T02:01:17;1.25;;;0.65;;
32445;SDS011;18899;50.748;7.102;2024-02-14T02:03:43;2.95;;;1.08;;
32445;SDS011;18899;50.748;7.102;2024-02-14T02:06:08;2.25;;;0.80;;
32445;SDS011;18899;50.748;7.102;2024-02-14T02:08:34;3.13;;;0.95;;
32445;SDS011;18899;50.748;7.102;2024-02-14T02:11:00;1.33;;;0.60;;
32445;SDS011;18899;50.748;7.102;2024-02-14T02:13:26;1.88;;;0.60;;
32445;SDS011;18899;50.748;7.102;2024-02-14T02:15:54;3.42;;;0.60;;
32445;SDS011;18899;50.748;7.102;2024-02-14T02:18:20;2.67;;;0.70;;
32445;SDS011;18899;50.748;7.102;2024-02-14T02:20:45;2.25;;;0.85;;
32445;SDS011;18899;50.748;7.102;2024-02-14T02:23:11;4.00;;;0.85;;
32445;SDS011;18899;50.748;7.102;2024-02-14T02:25:41;1.88;;;0.70;;
32445;SDS011;18899;50.748;7.102;2024-02-14T02:28:07;3.13;;;1.35;;
32445;SDS011;18899;50.748;7.102;2024-02-14T02:30:34;1.63;;;0.70;;
32445;SDS011;18899;50.748;7.102;2024-02-14T02:33:02;3.42;;;1.52;;
32445;SDS011;18899;50.748;7.102;2024-02-14T02:35:29;1.20;;;0.60;;
32445;SDS011;18899;50.748;7.102;2024-02-14T02:37:54;2.53;;;0.80;;
32445;SDS011;18899;50.748;7.102;2024-02-14T02:40:20;1.75;;;0.70;;
32445;SDS011;18899;50.748;7.102;2024-02-14T02:42:46;2.53;;;0.90;;
32445;SDS011;18899;50.748;7.102;2024-02-14T02:45:12;2.05;;;0.68;;
32445;SDS011;18899;50.748;7.102;2024-02-14T02:47:38;1.20;;;0.70;;
32445;SDS011;18899;50.748;7.102;2024-02-14T02:50:04;2.03;;;0.80;;
32445;SDS011;18899;50.748;7.102;2024-02-14T02:52:31;3.42;;;0.90;;
32445;SDS011;18899;50.748;7.102;2024-02-14T02:54:57;4.65;;;1.02;;
32445;SDS011;18899;50.748;7.102;2024-02-14T02:57:22;0.90;;;0.60;;
32445;SDS011;18899;50.748;7.102;2024-02-14T02:59:48;2.08;;;0.70;;
32445;SDS011;18899;50.748;7.102;2024-02-14T03:02:14;2.17;;;0.75;;
32445;SDS011;18899;50.748;7.102;2024-02-14T03:04:40;2.47;;;0.60;;
32445;SDS011;18899;50.748;7.102;2024-02-14T03:07:06;2.55;;;0.90;;
32445;SDS011;18899;50.748;7.102;2024-02-14T03:09:33;2.05;;;0.95;;
32445;SDS011;18899;50.748;7.102;2024-02-14T03:12:00;2.28;;;0.80;;
32445;SDS011;18899;50.748;7.102;2024-02-14T03:14:28;2.55;;;1.00;;
32445;SDS011;18899;50.748;7.102;2024-02-14T03:16:57;1.17;;;0.60;;
32445;SDS011;18899;50.748;7.102;2024-02-14T03:19:26;2.35;;;0.73;;
32445;SDS011;18899;50.748;7.102;2024-02-14T03:21:55;2.22;;;0.90;;
32445;SDS011;18899;50.748;7.102;2024-02-14T03:24:22;3.10;;;0.60;;
32445;SDS011;18899;50.748;7.102;2024-02-14T03:26:50;2.70;;;0.90;;
32445;SDS011;18899;50.748;7.102;2024-02-14T03:29:16;3.72;;;0.98;;
32445;SDS011;18899;50.748;7.102;2024-02-14T03:31:42;3.58;;;1.00;;
32445;SDS011;18899;50.748;7.102;2024-02-14T03:34:09;2.08;;;0.95;;
32445;SDS011;18899;50.748;7.102;2024-02-14T03:36:36;2.20;;;1.00;;
32445;SDS011;18899;50.748;7.102;2024-02-14T03:39:02;3.88;;;1.02;;
32445;SDS011;18899;50.748;7.102;2024-02-14T03:41:29;5.45;;;1.40;;
32445;SDS011;18899;50.748;7.102;2024-02-14T03:43:54;2.05;;;1.15;;
32445;SDS011;18899;50.748;7.102;2024-02-14T03:46:23;4.38;;;0.77;;
32445;SDS011;18899;50.748;7.102;2024-02-14T03:48:49;4.18;;;0.88;;
32445;SDS011;18899;50.748;7.102;2024-02-14T03:51:14;4.00;;;1.05;;
32445;SDS011;18899;50.748;7.102;2024-02-14T03:53:41;3.53;;;1.05;;
32445;SDS011;18899;50.748;7.102;2024-02-14T03:56:06;2.15;;;0.88;;
32445;SDS011;18899;50.748;7.102;2024-02-14T03:58:32;1.75;;;0.95;;
32445;SDS011;18899;50.748;7.102;2024-02-14T04:01:00;3.42;;;1.08;;
32445;SDS011;18899;50.748;7.102;2024-02-14T04:03:26;2.72;;;0.93;;
32445;SDS011;18899;50.748;7.102;2024-02-14T04:05:54;2.92;;;0.80;;
32445;SDS011;18899;50.748;7.102;2024-02-14T04:08:19;3.85;;;0.82;;
32445;SDS011;18899;50.748;7.102;2024-02-14T04:10:45;3.13;;;0.90;;
32445;SDS011;18899;50.748;7.102;2024-02-14T04:13:11;1.95;;;0.63;;
32445;SDS011;18899;50.748;7.102;2024-02-14T04:15:36;3.88;;;0.88;;
32445;SDS011;18899;50.748;7.102;2024-02-14T04:18:02;3.58;;;0.85;;
32445;SDS011;18899;50.748;7.102;2024-02-14T04:20:28;2.60;;;0.80;;
32445;SDS011;18899;50.748;7.102;2024-02-14T04:22:54;1.55;;;0.70;;
32445;SDS011;18899;50.748;7.102;2024-02-14T04:25:20;4.70;;;0.93;;
32445;SDS011;18899;50.748;7.102;2024-02-14T04:27:47;1.73;;;0.80;;
32445;SDS011;18899;50.748;7.102;2024-02-14T04:30:13;2.85;;;0.70;;
32445;SDS011;18899;50.748;7.102;2024-02-14T04:32:38;2.97;;;0.80;;
32445;SDS011;18899;50.748;7.102;2024-02-14T04:35:04;2.22;;;0.77;;
32445;SDS011;18899;50.748;7.102;2024-02-14T04:37:30;1.38;;;0.70;;
32445;SDS011;18899;50.748;7.102;2024-02-14T04:39:55;2.88;;;0.60;;
32445;SDS011;18899;50.748;7.102;2024-02-14T04:42:21;2.88;;;0.93;;
32445;SDS011;18899;50.748;7.102;2024-02-14T04:44:46;1.55;;;0.88;;
32445;SDS011;18899;50.748;7.102;2024-02-14T04:47:12;2.42;;;0.85;;
32445;SDS011;18899;50.748;7.102;2024-02-14T04:49:37;2.70;;;0.70;;
32445;SDS011;18899;50.748;7.102;2024-02-14T04:52:03;2.90;;;1.00;;
32445;SDS011;18899;50.748;7.102;2024-02-14T04:54:29;3.47;;;0.60;;
32445;SDS011;18899;50.748;7.102;2024-02-14T04:56:55;1.95;;;0.77;;
32445;SDS011;18899;50.748;7.102;2024-02-14T04:59:20;1.48;;;0.70;;
32445;SDS011;18899;50.748;7.102;2024-02-14T05:01:46;1.77;;;0.70;;
32445;SDS011;18899;50.748;7.102;2024-02-14T05:04:11;1.95;;;0.80;;
32445;SDS011;18899;50.748;7.102;2024-02-14T05:06:38;3.30;;;0.77;;
32445;SDS011;18899;50.748;7.102;2024-02-14T05:09:03;4.60;;;1.00;;
32445;SDS011;18899;50.748;7.102;2024-02-14T05:11:29;1.67;;;0.80;;
32445;SDS011;18899;50.748;7.102;2024-02-14T05:13:55;1.33;;;0.68;;
32445;SDS011;18899;50.748;7.102;2024-02-14T05:16:20;1.40;;;0.70;;
32445;SDS011;18899;50.748;7.102;2024-02-14T05:18:46;1.90;;;0.80;;
32445;SDS011;18899;50.748;7.102;2024-02-14T05:21:12;3.80;;;0.70;;
32445;SDS011;18899;50.748;7.102;2024-02-14T05:23:37;4.07;;;1.05;;
32445;SDS011;18899;50.748;7.102;2024-02-14T05:26:03;1.77;;;0.80;;
32445;SDS011;18899;50.748;7.102;2024-02-14T05:28:29;3.80;;;0.95;;
32445;SDS011;18899;50.748;7.102;2024-02-14T05:30:56;1.60;;;0.80;;
32445;SDS011;18899;50.748;7.102;2024-02-14T05:33:21;2.55;;;0.98;;
32445;SDS011;18899;50.748;7.102;2024-02-14T05:35:50;1.27;;;0.70;;
32445;SDS011;18899;50.748;7.102;2024-02-14T05:38:16;2.60;;;0.93;;
32445;SDS011;18899;50.748;7.102;2024-02-14T05:40:44;2.03;;;0.77;;
32445;SDS011;18899;50.748;7.102;2024-02-14T05:43:13;4.80;;;0.85;;
32445;SDS011;18899;50.748;7.102;2024-02-14T05:45:39;2.22;;;0.90;;
32445;SDS011;18899;50.748;7.102;2024-02-14T05:48:06;2.90;;;0.90;;
32445;SDS011;18899;50.748;7.102;2024-02-14T05:50:32;3.33;;;0.80;;
32445;SDS011;18899;50.748;7.102;2024-02-14T05:52:58;1.27;;;0.77;;
32445;SDS011;18899;50.748;7.102;2024-02-14T05:55:24;3.45;;;0.95;;
32445;SDS011;18899;50.748;7.102;2024-02-14T05:57:50;1.30;;;0.80;;
32445;SDS011;18899;50.748;7.102;2024-02-14T06:00:17;1.27;;;0.73;;
32445;SDS011;18899;50.748;7.102;2024-02-14T06:02:44;4.13;;;1.02;;
32445;SDS011;18899;50.748;7.102;2024-02-14T06:05:09;3.38;;;1.10;;
32445;SDS011;18899;50.748;7.102;2024-02-14T06:07:36;3.80;;;1.17;;
32445;SDS011;18899;50.748;7.102;2024-02-14T06:10:02;2.15;;;1.00;;
32445;SDS011;18899;50.748;7.102;2024-02-14T06:12:27;2.25;;;0.70;;
32445;SDS011;18899;50.748;7.102;2024-02-14T06:14:54;3.33;;;0.82;;
32445;SDS011;18899;50.748;7.102;2024-02-14T06:17:20;2.83;;;0.90;;
32445;SDS011;18899;50.748;7.102;2024-02-14T06:19:45;3.53;;;0.90;;
32445;SDS011;18899;50.748;7.102;2024-02-14T06:22:11;2.83;;;1.00;;
32445;SDS011;18899;50.748;7.102;2024-02-14T06:24:37;1.58;;;0.77;;
32445;SDS011;18899;50.748;7.102;2024-02-14T06:27:02;4.15;;;0.75;;
32445;SDS011;18899;50.748;7.102;2024-02-14T06:29:28;1.52;;;0.82;;
32445;SDS011;18899;50.748;7.102;2024-02-14T06:31:53;1.52;;;0.85;;
32445;SDS011;18899;50.748;7.102;2024-02-14T06:34:19;2.30;;;0.90;;
32445;SDS011;18899;50.748;7.102;2024-02-14T06:36:46;1.60;;;1.00;;
32445;SDS011;18899;50.748;7.102;2024-02-14T06:39:11;3.83;;;1.05;;
32445;SDS011;18899;50.748;7.102;2024-02-14T06:41:37;3.85;;;0.90;;
32445;SDS011;18899;50.748;7.102;2024-02-14T06:44:03;2.05;;;1.00;;
32445;SDS011;18899;50.748;7.102;2024-02-14T06:46:29;7.05;;;0.90;;
32445;SDS011;18899;50.748;7.102;2024-02-14T06:48:55;1.40;;;0.80;;
32445;SDS011;18899;50.748;7.102;2024-02-14T06:51:21;1.42;;;0.80;;
32445;SDS011;18899;50.748;7.102;2024-02-14T06:53:49;2.35;;;0.90;;
32445;SDS011;18899;50.748;7.102;2024-02-14T06:56:15;2.08;;;1.05;;
32445;SDS011;18899;50.748;7.102;2024-02-14T06:58:41;3.10;;;1.00;;
32445;SDS011;18899;50.748;7.102;2024-02-14T07:01:06;1.27;;;0.60;;
32445;SDS011;18899;50.748;7.102;2024-02-14T07:03:32;2.17;;;0.90;;
32445;SDS011;18899;50.748;7.102;2024-02-14T07:05:58;4.07;;;0.93;;
32445;SDS011;18899;50.748;7.102;2024-02-14T07:08:24;1.15;;;0.80;;
32445;SDS011;18899;50.748;7.102;2024-02-14T07:10:53;1.83;;;0.90;;
32445;SDS011;18899;50.748;7.102;2024-02-14T07:13:19;1.30;;;0.90;;
32445;SDS011;18899;50.748;7.102;2024-02-14T07:15:45;2.78;;;0.52;;
32445;SDS011;18899;50.748;7.102;2024-02-14T07:18:10;1.02;;;0.63;;
32445;SDS011;18899;50.748;7.102;2024-02-14T07:20:36;2.55;;;0.75;;
32445;SDS011;18899;50.748;7.102;2024-02-14T07:23:01;1.92;;;0.70;;
32445;SDS011;18899;50.748;7.102;2024-02-14T07:25:28;0.85;;;0.60;;
32445;SDS011;18899;50.748;7.102;2024-02-14T07:27:53;1.27;;;0.77;;
32445;SDS011;18899;50.748;7.102;2024-02-14T07:30:19;1.77;;;0.80;;
32445;SDS011;18899;50.748;7.102;2024-02-14T07:32:44;1.73;;;0.75;;
32445;SDS011;18899;50.748;7.102;2024-02-14T07:35:10;1.90;;;0.60;;
32445;SDS011;18899;50.748;7.102;2024-02-14T07:37:36;3.33;;;0.80;;
32445;SDS011;18899;50.748;7.102;2024-02-14T07:40:02;1.10;;;0.65;;
32445;SDS011;18899;50.748;7.102;2024-02-14T07:42:28;1.85;;;0.80;;
32445;SDS011;18899;50.748;7.102;2024-02-14T07:44:54;0.75;;;0.60;;
32445;SDS011;18899;50.748;7.102;2024-02-14T07:47:21;0.60;;;0.40;;
32445;SDS011;18899;50.748;7.102;2024-02-14T07:49:46;3.80;;;0.70;;
32445;SDS011;18899;50.748;7.102;2024-02-14T07:52:12;1.45;;;0.50;;
32445;SDS011;18899;50.748;7.102;2024-02-14T07:54:37;1.55;;;0.65;;
32445;SDS011;18899;50.748;7.102;2024-02-14T07:57:03;3.17;;;0.68;;
32445;SDS011;18899;50.748;7.102;2024-02-14T07:59:29;1.48;;;0.55;;
32445;SDS011;18899;50.748;7.102;2024-02-14T08:01:54;2.67;;;0.63;;
32445;SDS011;18899;50.748;7.102;2024-02-14T08:04:21;0.70;;;0.40;;
32445;SDS011;18899;50.748;7.102;2024-02-14T08:06:46;0.85;;;0.63;;
32445;SDS011;18899;50.748;7.102;2024-02-14T08:09:14;1.45;;;0.60;;
32445;SDS011;18899;50.748;7.102;2024-02-14T08:11:40;0.95;;;0.40;;
32445;SDS011;18899;50.748;7.102;2024-02-14T08:14:05;2.80;;;0.55;;
32445;SDS011;18899;50.748;7.102;2024-02-14T08:16:31;1.27;;;0.60;;
32445;SDS011;18899;50.748;7.102;2024-02-14T08:18:57;0.65;;;0.40;;
32445;SDS011;18899;50.748;7.102;2024-02-14T08:21:24;1.38;;;0.77;;
32445;SDS011;18899;50.748;7.102;2024-02-14T08:23:53;2.22;;;0.60;;
32445;SDS011;18899;50.748;7.102;2024-02-14T08:26:20;1.58;;;0.50;;
32445;SDS011;18899;50.748;7.102;2024-02-14T08:28:46;1.25;;;0.65;;
32445;SDS011;18899;50.748;7.102;2024-02-14T08:31:12;1.38;;;0.80;;
32445;SDS011;18899;50.748;7.102;2024-02-14T08:33:38;1.40;;;0.60;;
32445;SDS011;18899;50.748;7.102;2024-02-14T08:36:04;1.38;;;0.68;;
32445;SDS011;18899;50.748;7.102;2024-02-14T08:38:32;0.85;;;0.47;;
32445;SDS011;18899;50.748;7.102;2024-02-14T08:40:58;2.97;;;0.68;;
32445;SDS011;18899;50.748;7.102;2024-02-14T08:43:23;11.45;;;0.77;;
32445;SDS011;18899;50.748;7.102;2024-02-14T08:45:53;1.75;;;0.68;;
32445;SDS011;18899;50.748;7.102;2024-02-14T08:48:19;3.70;;;0.60;;
32445;SDS011;18899;50.748;7.102;2024-02-14T08:50:45;1.65;;;0.82;;
32445;SDS011;18899;50.748;7.102;2024-02-14T08:53:11;3.50;;;0.85;;
32445;SDS011;18899;50.748;7.102;2024-02-14T08:55:38;3.42;;;0.70;;
32445;SDS011;18899;50.748;7.102;2024-02-14T08:58:06;2.05;;;0.60;;
32445;SDS011;18899;50.748;7.102;2024-02-14T09:00:34;0.80;;;0.50;;
32445;SDS011;18899;50.748;7.102;2024-02-14T09:03:04;3.20;;;0.60;;
32445;SDS011;18899;50.748;7.102;2024-02-14T09:05:30;4.22;;;0.70;;
32445;SDS011;18899;50.748;7.102;2024-02-14T09:07:56;1.40;;;0.55;;
32445;SDS011;18899;50.748;7.102;2024-02-14T09:10:22;1.33;;;0.63;;
32445;SDS011;18899;50.748;7.102;2024-02-14T09:12:47;1.77;;;0.60;;
32445;SDS011;18899;50.748;7.102;2024-02-14T09:15:13;2.30;;;0.70;;
32445;SDS011;18899;50.748;7.102;2024-02-14T09:17:39;1.45;;;0.60;;
32445;SDS011;18899;50.748;7.102;2024-02-14T09:20:06;1.70;;;0.85;;
32445;SDS011;18899;50.748;7.102;2024-02-14T09:22:35;3.58;;;0.60;;
32445;SDS011;18899;50.748;7.102;2024-02-14T09:25:01;2.83;;;0.60;;
32445;SDS011;18899;50.748;7.102;2024-02-14T09:27:30;2.88;;;0.60;;
32445;SDS011;18899;50.748;7.102;2024-02-14T09:29:57;0.63;;;0.43;;
32445;SDS011;18899;50.748;7.102;2024-02-14T09:32:23;2.78;;;0.55;;
32445;SDS011;18899;50.748;7.102;2024-02-14T09:34:49;1.80;;;0.70;;
32445;SDS011;18899;50.748;7.102;2024-02-14T09:37:14;1.50;;;0.60;;
32445;SDS011;18899;50.748;7.102;2024-02-14T09:39:41;1.75;;;0.50;;
32445;SDS011;18899;50.748;7.102;2024-02-14T09:42:09;1.67;;;0.70;;
32445;SDS011;18899;50.748;7.102;2024-02-14T09:44:40;1.58;;;0.50;;
32445;SDS011;18899;50.748;7.102;2024-02-14T09:47:07;0.63;;;0.40;;
32445;SDS011;18899;50.748;7.102;2024-02-14T09:49:34;1.60;;;0.63;;
32445;SDS011;18899;50.748;7.102;2024-02-14T09:52:03;2.72;;;0.82;;
32445;SDS011;18899;50.748;7.102;2024-02-14T09:54:31;5.43;;;0.60;;
32445;SDS011;18899;50.748;7.102;2024-02-14T09:56:59;2.22;;;0.60;;
32445;SDS011;18899;50.748;7.102;2024-02-14T09:59:26;1.63;;;0.52;;
32445;SDS011;18899;50.748;7.102;2024-02-14T10:01:52;1.35;;;0.68;;
32445;SDS011;18899;50.748;7.102;2024-02-14T10:04:18;1.85;;;0.60;;
32445;SDS011;18899;50.748;7.102;2024-02-14T10:06:44;0.75;;;0.50;;
32445;SDS011;18899;50.748;7.102;2024-02-14T10:09:10;8.90;;;0.73;;
32445;SDS011;18899;50.748;7.102;2024-02-14T10:11:36;2.22;;;0.50;;
32445;SDS011;18899;50.748;7.102;2024-02-14T10:14:02;1.23;;;0.40;;
32445;SDS011;18899;50.748;7.102;2024-02-14T10:16:32;0.88;;;0.50;;
32445;SDS011;18899;50.748;7.102;2024-02-14T10:19:00;2.45;;;0.40;;
32445;SDS011;18899;50.748;7.102;2024-02-14T10:21:25;1.60;;;0.47;;
32445;SDS011;18899;50.748;7.102;2024-02-14T10:23:53;1.75;;;0.60;;
32445;SDS011;18899;50.748;7.102;2024-02-14T10:26:21;1.52;;;0.43;;
32445;SDS011;18899;50.748;7.102;2024-02-14T10:28:46;3.65;;;0.70;;
32445;SDS011;18899;50.748;7.102;2024-02-14T10:31:12;3.47;;;0.70;;
32445;SDS011;18899;50.748;7.102;2024-02-14T10:33:38;1.58;;;0.75;;
32445;SDS011;18899;50.748;7.102;2024-02-14T10:36:05;1.80;;;0.70;;
32445;SDS011;18899;50.748;7.102;2024-02-14T10:38:33;2.13;;;0.70;;
32445;SDS011;18899;50.748;7.102;2024-02-14T10:40:59;2.35;;;0.60;;
32445;SDS011;18899;50.748;7.102;2024-02-14T10:43:26;2.28;;;0.65;;
32445;SDS011;18899;50.748;7.102;2024-02-14T10:45:54;1.88;;;0.55;;
32445;SDS011;18899;50.748;7.102;2024-02-14T10:48:23;4.22;;;0.65;;
32445;SDS011;18899;50.748;7.102;2024-02-14T10:50:50;2.33;;;0.50;;
32445;SDS011;18899;50.748;7.102;2024-02-14T10:53:18;2.13;;;0.63;;
32445;SDS011;18899;50.748;7.102;2024-02-14T10:55:46;2.50;;;0.60;;
32445;SDS011;18899;50.748;7.102;2024-02-14T10:58:14;1.40;;;0.50;;
32445;SDS011;18899;50.748;7.102;2024-02-14T11:00:41;2.28;;;0.50;;
32445;SDS011;18899;50.748;7.102;2024-02-14T11:03:08;3.10;;;0.70;;
32445;SDS011;18899;50.748;7.102;2024-02-14T11:05:47;0.50;;;0.30;;
32445;SDS011;18899;50.748;7.102;2024-02-14T11:08:14;2.33;;;0.50;;
32445;SDS011;18899;50.748;7.102;2024-02-14T11:10:54;2.45;;;0.80;;
32445;SDS011;18899;50.748;7.102;2024-02-14T11:13:21;2.33;;;0.70;;
32445;SDS011;18899;50.748;7.102;2024-02-14T11:15:51;0.88;;;0.40;;
32445;SDS011;18899;50.748;7.102;2024-02-14T11:18:28;1.15;;;0.47;;
32445;SDS011;18899;50.748;7.102;2024-02-14T11:20:55;1.55;;;0.65;;
32445;SDS011;18899;50.748;7.102;2024-02-14T11:23:22;4.35;;;0.50;;
32445;SDS011;18899;50.748;7.102;2024-02-14T11:25:48;5.80;;;0.70;;
32445;SDS011;18899;50.748;7.102;2024-02-14T11:28:15;2.45;;;0.80;;
32445;SDS011;18899;50.748;7.102;2024-02-14T11:30:42;2.97;;;0.60;;
32445;SDS011;18899;50.748;7.102;2024-02-14T11:35:47;1.92;;;0.50;;
32445;SDS011;18899;50.748;7.102;2024-02-14T11:38:18;3.83;;;0.80;;
32445;SDS011;18899;50.748;7.102;2024-02-14T11:40:44;3.05;;;1.00;;
32445;SDS011;18899;50.748;7.102;2024-02-14T11:43:14;2.30;;;1.02;;
32445;SDS011;18899;50.748;7.102;2024-02-14T11:45:44;2.03;;;0.45;;
32445;SDS011;18899;50.748;7.102;2024-02-14T11:48:17;1.20;;;0.47;;
32445;SDS011;18899;50.748;7.102;2024-02-14T11:53:14;1.25;;;0.40;;
32445;SDS011;18899;50.748;7.102;2024-02-14T11:55:43;5.22;;;0.60;;
32445;SDS011;18899;50.748;7.102;2024-02-14T11:58:12;1.73;;;0.50;;
32445;SDS011;18899;50.748;7.102;2024-02-14T12:00:39;1.15;;;0.60;;
32445;SDS011;18899;50.748;7.102;2024-02-14T12:03:23;3.40;;;0.50;;
32445;SDS011;18899;50.748;7.102;2024-02-14T12:05:51;0.60;;;0.40;;
32445;SDS011;18899;50.748;7.102;2024-02-14T12:08:17;0.88;;;0.40;;
32445;SDS011;18899;50.748;7.102;2024-02-14T12:10:43;2.78;;;0.45;;
32445;SDS011;18899;50.748;7.102;2024-02-14T12:13:14;2.55;;;0.40;;
32445;SDS011;18899;50.748;7.102;2024-02-14T12:15:43;2.85;;;0.47;;
32445;SDS011;18899;50.748;7.102;2024-02-14T12:18:10;2.13;;;0.40;;
32445;SDS011;18899;50.748;7.102;2024-02-14T12:20:37;0.93;;;0.50;;
32445;SDS011;18899;50.748;7.102;2024-02-14T12:23:03;0.93;;;0.40;;
32445;SDS011;18899;50.748;7.102;2024-02-14T12:25:30;1.05;;;0.50;;
32445;SDS011;18899;50.748;7.102;2024-02-14T12:27:56;0.60;;;0.30;;
32445;SDS011;18899;50.748;7.102;2024-02-14T12:30:41;0.82;;;0.45;;
32445;SDS011;18899;50.748;7.102;2024-02-14T12:33:12;1.05;;;0.40;;
32445;SDS011;18899;50.748;7.102;2024-02-14T12:35:42;0.38;;;0.30;;
32445;SDS011;18899;50.748;7.102;2024-02-14T12:38:12;1.65;;;0.50;;
32445;SDS011;18899;50.748;7.102;2024-02-14T12:40:40;0.52;;;0.35;;
32445;SDS011;18899;50.748;7.102;2024-02-14T12:43:12;0.60;;;0.47;;
32445;SDS011;18899;50.748;7.102;2024-02-14T12:45:39;0.50;;;0.30;;
32445;SDS011;18899;50.748;7.102;2024-02-14T12:48:06;0.90;;;0.45;;
32445;SDS011;18899;50.748;7.102;2024-02-14T12:50:38;0.68;;;0.45;;
32445;SDS011;18899;50.748;7.102;2024-02-14T12:53:04;3.20;;;0.60;;
32445;SDS011;18899;50.748;7.102;2024-02-14T12:55:30;0.65;;;0.40;;
32445;SDS011;18899;50.748;7.102;2024-02-14T12:57:56;0.70;;;0.47;;
32445;SDS011;18899;50.748;7.102;2024-02-14T13:00:22;1.70;;;0.60;;
32445;SDS011;18899;50.748;7.102;2024-02-14T13:02:48;0.60;;;0.30;;
32445;SDS011;18899;50.748;7.102;2024-02-14T13:05:14;0.40;;;0.30;;
32445;SDS011;18899;50.748;7.102;2024-02-14T13:07:40;0.70;;;0.50;;
32445;SDS011;18899;50.748;7.102;2024-02-14T13:10:06;1.30;;;0.35;;
32445;SDS011;18899;50.748;7.102;2024-02-14T13:12:34;0.70;;;0.50;;
32445;SDS011;18899;50.748;7.102;2024-02-14T13:15:00;0.60;;;0.40;;
32445;SDS011;18899;50.748;7.102;2024-02-14T13:17:26;1.48;;;0.50;;
32445;SDS011;18899;50.748;7.102;2024-02-14T13:19:52;0.70;;;0.50;;
32445;SDS011;18899;50.748;7.102;2024-02-14T13:22:18;1.27;;;0.40;;
32445;SDS011;18899;50.748;7.102;2024-02-14T13:24:44;0.43;;;0.43;;
32445;SDS011;18899;50.748;7.102;2024-02-14T13:27:09;0.77;;;0.40;;
32445;SDS011;18899;50.748;7.102;2024-02-14T13:29:35;0.40;;;0.30;;
32445;SDS011;18899;50.748;7.102;2024-02-14T13:32:00;2.85;;;0.70;;
32445;SDS011;18899;50.748;7.102;2024-02-14T13:34:27;0.60;;;0.40;;
32445;SDS011;18899;50.748;7.102;2024-02-14T13:36:53;3.22;;;0.57;;
32445;SDS011;18899;50.748;7.102;2024-02-14T13:39:19;1.27;;;0.60;;
32445;SDS011;18899;50.748;7.102;2024-02-14T13:41:44;1.58;;;0.50;;
32445;SDS011;18899;50.748;7.102;2024-02-14T13:44:10;1.40;;;0.50;;
32445;SDS011;18899;50.748;7.102;2024-02-14T13:46:36;1.00;;;0.57;;
32445;SDS011;18899;50.748;7.102;2024-02-14T13:49:01;3.35;;;0.47;;
32445;SDS011;18899;50.748;7.102;2024-02-14T13:51:27;4.10;;;0.65;;
32445;SDS011;18899;50.748;7.102;2024-02-14T13:53:53;4.93;;;0.95;;
32445;SDS011;18899;50.748;7.102;2024-02-14T13:56:19;1.75;;;0.80;;
32445;SDS011;18899;50.748;7.102;2024-02-14T13:58:47;1.30;;;0.70;;
32445;SDS011;18899;50.748;7.102;2024-02-14T14:01:14;2.22;;;1.00;;
32445;SDS011;18899;50.748;7.102;2024-02-14T14:03:40;2.63;;;1.02;;
32445;SDS011;18899;50.748;7.102;2024-02-14T14:06:06;1.17;;;0.60;;
32445;SDS011;18899;50.748;7.102;2024-02-14T14:08:34;2.85;;;0.77;;
32445;SDS011;18899;50.748;7.102;2024-02-14T14:11:02;5.28;;;0.80;;
32445;SDS011;18899;50.748;7.102;2024-02-14T14:13:28;3.97;;;0.80;;
32445;SDS011;18899;50.748;7.102;2024-02-14T14:15:58;1.38;;;0.75;;
32445;SDS011;18899;50.748;7.102;2024-02-14T14:18:24;1.15;;;0.60;;
32445;SDS011;18899;50.748;7.102;2024-02-14T14:20:49;3.33;;;0.68;;
32445;SDS011;18899;50.748;7.102;2024-02-14T14:23:15;1.75;;;0.52;;
32445;SDS011;18899;50.748;7.102;2024-02-14T14:25:41;1.00;;;0.70;;
32445;SDS011;18899;50.748;7.102;2024-02-14T14:28:06;0.85;;;0.68;;
32445;SDS011;18899;50.748;7.102;2024-02-14T14:30:33;2.50;;;0.60;;
32445;SDS011;18899;50.748;7.102;2024-02-14T14:32:59;0.93;;;0.70;;
32445;SDS011;18899;50.748;7.102;2024-02-14T14:35:24;3.00;;;0.68;;
32445;SDS011;18899;50.748;7.102;2024-02-14T14:37:50;0.90;;;0.50;;
32445;SDS011;18899;50.748;7.102;2024-02-14T14:40:16;1.30;;;0.70;;
32445;SDS011;18899;50.748;7.102;2024-02-14T14:42:42;3.45;;;0.70;;
32445;SDS011;18899;50.748;7.102;2024-02-14T14:45:08;1.92;;;0.90;;
32445;SDS011;18899;50.748;7.102;2024-02-14T14:47:33;1.45;;;0.88;;
32445;SDS011;18899;50.748;7.102;2024-02-14T14:50:00;1.77;;;0.70;;